Santutxu, Spain
Current Conditions -  °F | °C
As of 10:00 PM on Tuesday 21 Oct 2014 (Local Time) from LEBB Reporting Station
Broken Clouds Broken Clouds  
Wind Chill: 64°   Ceiling: 3500
Heat Index: 64°   Visibility: 5mi
Dew Point: 61°   Wind: 5mph
Humidity: 88%   Direction: 310°NW
Pressure: 30.42"   Gusts: NA
Location:  43.25°N, 2.92°W
Report Text: LEBB 212000Z 31004KT 8000 SCT025 BKN035 18/16 Q1030 TEMPO3000 -RA BKN014
Loading
Personal Weather Stations






























Interactive Weather Map
Tropical Storm Tracking
New forecast layout! Learn more

10-Day Weather Forecast

Advertisements
Track Severe Weather on mobile